LRCL Airport Information

Runway Information
Runway 07 Length 6070 ft width 98 ft
Elevation 1036 ft Threshold 0 ft Heading 79
Runway 25 Length 6070 ft Width 98 ft
Elevation 1025 ft Threshold 0 ft Heading 259
Runway 08 Length 0 ft width 0 ft
Elevation 1036 ft Threshold 0 ft Heading 0
Runway 26 Length 0 ft Width 0 ft
Elevation 1025 ft Threshold 0 ft Heading 0
Airport Frequencies
Type APP Name APP Frequency 125.1 MHZ
Type GCA Name PRECISION Frequency 118.7 MHZ
Type TWR Name TWR Frequency 134.4 MHZ
Airport Navaids
Type VOR-DME Name Cluj Frequency 111200 KHZ
Airport Weather Information & NOTAM
ADDS - METARS form results

(0540 UTC 19 June 2019)
Data provider http://aviationweather.gov/metar/data/
 
METAR text: LRCL 190530Z 00000KT 3500 BR SCT002 19/18 Q1016
Conditions at: LRCL (CLUJ-NAPOCA/SOME, RO) observed 0530 UTC 19 June 2019
Temperature: 19.0°C (66°F)
Dewpoint: 18.0°C (64°F) [RH = 94%]
Pressure (altimeter): 30.00 inches Hg (1016.0 mb)
Winds: calm
Visibility: 2.17 miles (3.49 km)
Ceiling: at least 12,000 feet AGL
Clouds: scattered clouds at 200 feet AGL
Weather: BR  (mist)

METAR text: LRCL 190500Z 00000KT 1800 BR BKN002 18/17 Q1016
Conditions at: LRCL (CLUJ-NAPOCA/SOME, RO) observed 0500 UTC 19 June 2019
Temperature: 18.0°C (64°F)
Dewpoint: 17.0°C (63°F) [RH = 94%]
Pressure (altimeter): 30.00 inches Hg (1016.0 mb)
Winds: calm
Visibility: 1.12 miles (1.80 km)
Ceiling: 200 feet AGL
Clouds: broken clouds at 200 feet AGL
Weather: BR  (mist)

Forecast for: LRCL (CLUJ-NAPOCA/SOME, RO)
Text: TAF LRCL 190500Z 1906/1915 VRB03KT 3000 BR BKN002
Forecast period: 0600 to 1500 UTC 19 June 2019
Forecast type: FROM: standard forecast or significant change
Winds: variable direction winds at 3 MPH (3 knots; 1.5 m/s)
Visibility: 1.86 miles (2.99 km)
Ceiling: 200 feet AGL
Clouds: broken clouds at 200 feet AGL
Weather: BR  (mist)
Text: BECMG 1906/1908 9999 NSW SCT020
Forecast period: 0600 to 0800 UTC 19 June 2019
Forecast type: BECOMING: Conditions expected to become as follows by 0800 UTC 19 June 2019
Winds: variable direction winds at 3 MPH (3 knots; 1.5 m/s)
Visibility: 6 or more miles 10+ km)
Ceiling: at least 12,000 feet AGL
Clouds: scattered clouds at 2000 feet AGL
Weather: NSW  (no significant weather)
Text: BECMG 1908/1910 13010KT
Forecast period: 0800 to 1500 UTC 19 June 2019
Forecast type: BECOMING: Conditions expected to become as follows by 1000 UTC 19 June 2019
Winds: from the SE (130 degrees) at 12 MPH (10 knots; 5.1 m/s)
Visibility: 6 or more miles 10+ km)
Ceiling: at least 12,000 feet AGL
Clouds: scattered clouds at 2000 feet AGL
Weather: NSW  (no significant weather)
Text: PROB40
Forecast period: 1300 to 1500 UTC 19 June 2019
Forecast type: TEMPORARY: The following changes expected for less than half the time period
Visibility: missing
Ceiling: at least 12,000 feet AGL
Clouds: scattered clouds at 4000 feet AGL
Weather: -TSRA  (light rain associated with thunderstorm(s))